Pagina principale
METAR-TAF:

METAR-TAF

Aeroporti :

Raymond, Mississippi, Stati Uniti

latitudine: 32-18-16N, longitudine: 090-24-38W, altezza: 75 m

Osservazione

Il bollettino è stato emesso 19 minuti fa, alle 20:55 UTC
Vento 7 kt da sud
Temperature 15°C
Umidità 59%
Pressione 1019 hPa
Cielo sereno

METAR: KJVW 122055Z AUTO 19007KT CLR 15/07 A3009 RMK AO2

Ora: 15:14 (21:14 UTC)


TAF: mancante

Osservazioni e previsioni meteorologiche di più di 4000 aeroporti (messaggi METAR e TAF).

Le stazioni disponibili sono rappresentate dai dischi gialli e rossi sulla carta.

Puntare il mouse per vedere il nome della stazione.

Clicca sopra per visualizzare le osservazioni e previsioni meteorologiche.

Per cambiare la mappa : fare clic sui pulsanti verdi con una croce nera per ingrandire, il pulsante verde con un trattino per diminuire, o sulla freccia verde per le mappe adiacenti.


METAR-TAF: